createdAt,value
2023-06-04T00:00:33.713Z,53.05
2023-06-04T00:03:40.594Z,53.24
2023-06-04T00:06:46.449Z,53.54
2023-06-04T00:09:54.749Z,53.68
2023-06-04T00:13:00.537Z,53.73
2023-06-04T00:16:06.880Z,53.66
2023-06-04T00:19:13.614Z,53.78
2023-06-04T00:22:18.887Z,53.74
2023-06-04T00:25:25.153Z,53.37
2023-06-04T00:28:31.025Z,53.10
2023-06-04T00:31:36.758Z,53.00
2023-06-04T00:34:42.365Z,52.93
2023-06-04T00:37:50.014Z,53.07
2023-06-04T00:40:57.213Z,52.97
2023-06-04T00:44:08.183Z,53.37
2023-06-04T00:47:13.103Z,53.55
2023-06-04T00:50:18.418Z,53.58
2023-06-04T00:53:24.352Z,53.94
2023-06-04T00:56:29.393Z,54.22
2023-06-04T00:59:34.542Z,54.35
2023-06-04T01:02:40.977Z,54.73
2023-06-04T01:06:14.257Z,54.72
2023-06-04T01:09:20.292Z,54.49
2023-06-04T01:12:26.015Z,54.56
2023-06-04T01:15:31.218Z,54.62
2023-06-04T01:18:40.931Z,54.27
2023-06-04T01:21:47.749Z,54.12
2023-06-04T01:24:54.295Z,53.94
2023-06-04T01:28:04.954Z,53.58
2023-06-04T01:31:11.891Z,53.35
2023-06-04T01:34:17.251Z,53.23
2023-06-04T01:37:21.945Z,53.01
2023-06-04T01:40:27.812Z,52.83
2023-06-04T01:43:34.067Z,53.26
2023-06-04T01:46:39.811Z,53.62
2023-06-04T01:49:48.675Z,53.74
2023-06-04T01:52:57.770Z,53.75
2023-06-04T01:55:58.297Z,53.83
2023-06-04T01:58:51.434Z,53.90
2023-06-04T02:01:55.987Z,53.44
2023-06-04T02:05:02.637Z,53.03
2023-06-04T02:08:10.019Z,52.31
2023-06-04T02:11:16.662Z,51.44
2023-06-04T02:14:22.792Z,50.87
2023-06-04T02:17:28.263Z,50.60
2023-06-04T02:20:33.226Z,50.20
2023-06-04T02:23:39.350Z,49.64
2023-06-04T02:26:44.757Z,49.20
2023-06-04T02:29:50.031Z,48.70
2023-06-04T02:32:57.157Z,47.85
2023-06-04T02:36:03.538Z,46.97
2023-06-04T02:39:09.458Z,46.86
2023-06-04T02:42:15.871Z,45.68
2023-06-04T02:45:23.208Z,45.61
2023-06-04T02:48:28.497Z,45.19
2023-06-04T02:51:26.784Z,44.86
2023-06-04T02:54:32.268Z,44.27
2023-06-04T02:57:39.878Z,43.96
2023-06-04T03:00:46.550Z,43.73
2023-06-04T03:03:53.842Z,43.68
2023-06-04T03:07:02.875Z,43.00
2023-06-04T03:10:09.604Z,42.47
2023-06-04T03:13:16.550Z,42.76
2023-06-04T03:16:22.337Z,43.24
2023-06-04T03:19:27.583Z,42.88
2023-06-04T03:22:27.005Z,43.03
2023-06-04T03:25:32.384Z,44.26
2023-06-04T03:28:38.036Z,43.96
2023-06-04T03:31:46.050Z,43.71
2023-06-04T03:34:52.899Z,43.56
2023-06-04T03:37:58.605Z,42.88
2023-06-04T03:41:05.390Z,42.44
2023-06-04T03:44:12.314Z,42.62
2023-06-04T03:47:18.978Z,41.97
2023-06-04T03:50:25.429Z,41.57
2023-06-04T03:53:31.948Z,41.88
2023-06-04T03:56:37.480Z,42.22
2023-06-04T03:59:45.064Z,41.97
2023-06-04T04:02:51.378Z,41.60
2023-06-04T04:06:00.836Z,41.69
2023-06-04T04:09:07.525Z,42.01
2023-06-04T04:12:13.920Z,42.18
2023-06-04T04:15:21.735Z,42.67
2023-06-04T04:18:28.370Z,42.99
2023-06-04T04:21:33.731Z,41.97
2023-06-04T04:24:45.701Z,41.57
2023-06-04T04:27:52.432Z,41.96
2023-06-04T04:30:57.337Z,41.86
2023-06-04T04:34:06.000Z,42.05
2023-06-04T04:37:12.488Z,41.54
2023-06-04T04:40:19.839Z,41.50
2023-06-04T04:43:27.097Z,41.40
2023-06-04T04:46:34.239Z,40.95
2023-06-04T04:49:40.306Z,40.18
2023-06-04T04:52:45.288Z,40.66
2023-06-04T04:55:50.692Z,40.83
2023-06-04T04:58:57.114Z,40.62
2023-06-04T05:02:02.453Z,40.00
2023-06-04T05:05:07.159Z,39.98
2023-06-04T05:08:13.891Z,38.92
2023-06-04T05:11:20.342Z,38.77
2023-06-04T05:14:26.042Z,38.76
2023-06-04T05:17:33.883Z,38.03
2023-06-04T05:20:39.900Z,37.77
2023-06-04T05:23:46.077Z,36.87
2023-06-04T05:26:56.231Z,37.49
2023-06-04T05:30:01.801Z,37.35
2023-06-04T05:33:07.339Z,37.38
2023-06-04T05:36:14.347Z,37.25
2023-06-04T05:39:21.674Z,37.51
2023-06-04T05:42:32.722Z,36.96
2023-06-04T05:45:40.468Z,37.07
2023-06-04T05:48:47.072Z,36.82
2023-06-04T05:51:52.561Z,37.71
2023-06-04T05:54:58.667Z,37.25
2023-06-04T05:58:05.042Z,37.41
2023-06-04T06:01:10.964Z,37.46
2023-06-04T06:04:09.508Z,36.82
2023-06-04T06:07:10.533Z,37.24
2023-06-04T06:10:16.702Z,36.13
2023-06-04T06:13:23.577Z,36.46
2023-06-04T06:16:29.930Z,36.70
2023-06-04T06:19:34.604Z,35.85
2023-06-04T06:22:40.364Z,34.97
2023-06-04T06:25:48.447Z,35.36
2023-06-04T06:28:56.256Z,34.37
2023-06-04T06:32:03.419Z,35.49
2023-06-04T06:35:09.998Z,35.11
2023-06-04T06:38:18.743Z,35.34
2023-06-04T06:41:24.082Z,35.03
2023-06-04T06:44:29.583Z,34.94
2023-06-04T06:47:34.716Z,34.31
2023-06-04T06:50:42.992Z,34.16
2023-06-04T06:53:43.560Z,33.63
2023-06-04T06:56:48.577Z,34.04
2023-06-04T06:59:55.291Z,34.60
2023-06-04T07:03:01.485Z,33.43
2023-06-04T07:06:07.547Z,32.07
2023-06-04T07:09:14.445Z,32.20
2023-06-04T07:12:21.082Z,32.74
2023-06-04T07:15:26.741Z,31.93
2023-06-04T07:18:33.039Z,32.25
2023-06-04T07:21:38.899Z,31.85
2023-06-04T07:24:45.173Z,32.52
2023-06-04T07:27:49.987Z,32.06
2023-06-04T07:30:55.826Z,32.31
2023-06-04T07:34:02.246Z,31.23
2023-06-04T07:37:08.248Z,30.30
2023-06-04T07:40:14.511Z,30.16
2023-06-04T07:43:19.858Z,30.56
2023-06-04T07:46:29.813Z,30.87
2023-06-04T07:49:35.422Z,30.83
2023-06-04T07:52:41.011Z,30.29
2023-06-04T07:55:47.746Z,30.46
2023-06-04T07:58:55.573Z,30.83
2023-06-04T08:02:00.711Z,29.96
2023-06-04T08:05:06.653Z,30.68
2023-06-04T08:08:12.039Z,31.07
2023-06-04T08:11:17.655Z,31.00
2023-06-04T08:14:23.079Z,29.74
2023-06-04T08:17:29.099Z,30.86
2023-06-04T08:20:34.492Z,29.57
2023-06-04T08:23:39.885Z,30.60
2023-06-04T08:26:46.298Z,30.47
2023-06-04T08:29:52.586Z,30.78
2023-06-04T08:32:52.789Z,30.75
2023-06-04T08:35:58.640Z,29.70
2023-06-04T08:39:04.749Z,29.05
2023-06-04T08:42:15.039Z,29.91
2023-06-04T08:45:26.098Z,29.17
2023-06-04T08:48:31.675Z,28.79
2023-06-04T08:51:37.206Z,28.72
2023-06-04T08:54:42.846Z,28.60
2023-06-04T08:57:48.874Z,29.19
2023-06-04T09:00:55.081Z,29.33
2023-06-04T09:04:01.793Z,28.70
2023-06-04T09:07:08.180Z,28.28
2023-06-04T09:10:14.159Z,28.30
2023-06-04T09:13:23.456Z,29.20
2023-06-04T09:16:29.193Z,28.42
2023-06-04T09:19:35.799Z,29.05
2023-06-04T09:22:51.672Z,27.20
2023-06-04T09:25:59.820Z,27.02
2023-06-04T09:28:59.899Z,26.99
2023-06-04T09:31:46.152Z,28.49
2023-06-04T09:34:39.236Z,27.47
2023-06-04T09:37:32.023Z,27.96
2023-06-04T09:40:37.303Z,27.36
2023-06-04T09:43:44.107Z,28.28
2023-06-04T09:46:49.886Z,25.92
2023-06-04T09:50:02.652Z,27.46
2023-06-04T09:53:08.371Z,26.37
2023-06-04T09:56:18.830Z,25.81
2023-06-04T09:59:26.310Z,26.62
2023-06-04T10:02:35.621Z,26.42
2023-06-04T10:05:43.101Z,26.49
2023-06-04T10:08:47.705Z,26.24
2023-06-04T10:12:07.253Z,26.42
2023-06-04T10:15:16.889Z,25.98
2023-06-04T10:18:23.328Z,26.89
2023-06-04T10:21:30.689Z,26.24
2023-06-04T10:24:36.160Z,26.28
2023-06-04T10:27:43.548Z,26.42
2023-06-04T10:30:49.550Z,26.58
2023-06-04T10:33:56.224Z,25.78
2023-06-04T10:37:03.052Z,26.83
2023-06-04T10:40:14.042Z,26.21
2023-06-04T10:43:25.840Z,24.64
2023-06-04T10:46:32.443Z,25.95
2023-06-04T10:49:45.372Z,25.93
2023-06-04T10:52:51.520Z,25.83
2023-06-04T10:56:03.556Z,25.55
2023-06-04T10:59:09.121Z,25.77
2023-06-04T11:02:25.446Z,25.92
2023-06-04T11:05:30.800Z,24.98
2023-06-04T11:08:46.518Z,25.21
2023-06-04T11:11:52.339Z,24.90
2023-06-04T11:15:12.724Z,26.06
2023-06-04T11:18:19.304Z,25.69
2023-06-04T11:21:20.441Z,25.16
2023-06-04T11:24:16.138Z,25.31
2023-06-04T11:27:35.570Z,25.36
2023-06-04T11:30:30.533Z,26.80
2023-06-04T11:33:29.194Z,25.70
2023-06-04T11:36:21.598Z,24.80
2023-06-04T11:39:26.514Z,25.00
2023-06-04T11:42:32.202Z,25.81
2023-06-04T11:45:39.421Z,24.64
2023-06-04T11:48:45.879Z,25.11
2023-06-04T11:51:52.600Z,24.89
2023-06-04T11:54:59.157Z,25.55
2023-06-04T11:58:04.055Z,25.74
2023-06-04T12:01:11.905Z,25.26
2023-06-04T12:04:17.087Z,25.12
2023-06-04T12:07:22.689Z,25.45
2023-06-04T12:10:28.289Z,24.90
2023-06-04T12:13:33.836Z,24.92
2023-06-04T12:16:40.296Z,25.67
2023-06-04T12:19:46.041Z,25.10
2023-06-04T12:22:56.781Z,24.92
2023-06-04T12:26:09.618Z,24.86
2023-06-04T12:29:27.906Z,25.19
2023-06-04T12:32:34.224Z,25.47
2023-06-04T12:35:40.177Z,24.40
2023-06-04T12:38:47.181Z,24.76
2023-06-04T12:41:53.198Z,25.24
2023-06-04T12:44:58.347Z,25.13
2023-06-04T12:48:04.789Z,26.08
2023-06-04T12:51:10.323Z,25.04
2023-06-04T12:54:15.308Z,25.61
2023-06-04T12:57:19.985Z,25.91
2023-06-04T13:00:25.749Z,25.54
2023-06-04T13:03:32.475Z,23.48
2023-06-04T13:06:38.946Z,24.60
2023-06-04T13:09:45.393Z,23.79
2023-06-04T13:12:51.954Z,24.69
2023-06-04T13:15:58.302Z,24.65
2023-06-04T13:19:03.688Z,24.53
2023-06-04T13:22:09.354Z,24.44
2023-06-04T13:25:15.424Z,24.57
2023-06-04T13:28:23.375Z,25.07
2023-06-04T13:31:28.718Z,24.08
2023-06-04T13:34:34.685Z,24.28
2023-06-04T13:37:40.685Z,23.31
2023-06-04T13:40:46.887Z,24.21
2023-06-04T13:43:53.121Z,24.14
2023-06-04T13:46:59.581Z,23.39
2023-06-04T13:50:05.184Z,24.00
2023-06-04T13:53:10.753Z,24.74
2023-06-04T13:56:16.765Z,24.25
2023-06-04T13:59:22.369Z,23.89
2023-06-04T14:02:29.453Z,24.20
2023-06-04T14:05:35.552Z,24.59
2023-06-04T14:08:41.185Z,24.68
2023-06-04T14:11:49.333Z,23.47
2023-06-04T14:14:54.475Z,24.18
2023-06-04T14:18:01.680Z,23.86
2023-06-04T14:21:10.805Z,23.98
2023-06-04T14:24:15.976Z,23.86
2023-06-04T14:27:21.685Z,24.27
2023-06-04T14:30:27.759Z,24.51
2023-06-04T14:33:33.835Z,24.25
2023-06-04T14:36:39.520Z,23.42
2023-06-04T14:39:46.341Z,24.44
2023-06-04T14:42:51.661Z,22.93
2023-06-04T14:45:57.679Z,22.97
2023-06-04T14:49:03.681Z,23.52
2023-06-04T14:52:09.249Z,23.36
2023-06-04T14:55:15.220Z,23.89
2023-06-04T14:58:20.007Z,23.50
2023-06-04T15:01:25.604Z,24.10
2023-06-04T15:04:32.286Z,23.86
2023-06-04T15:07:38.850Z,24.04
2023-06-04T15:10:44.444Z,24.01
2023-06-04T15:13:49.466Z,24.21
2023-06-04T15:16:56.053Z,24.21
2023-06-04T15:20:01.592Z,23.85
2023-06-04T15:22:59.448Z,23.60
2023-06-04T15:26:04.756Z,23.55
2023-06-04T15:29:10.958Z,23.93
2023-06-04T15:32:17.691Z,23.74
2023-06-04T15:35:23.800Z,24.34
2023-06-04T15:38:31.976Z,24.55
2023-06-04T15:41:37.792Z,24.47
2023-06-04T15:44:44.446Z,23.99
2023-06-04T15:47:50.050Z,24.21
2023-06-04T15:50:57.966Z,24.20
2023-06-04T15:54:04.299Z,24.27
2023-06-04T15:57:10.826Z,24.84
2023-06-04T16:00:15.456Z,25.02
2023-06-04T16:03:21.599Z,23.80
2023-06-04T16:06:28.172Z,23.96
2023-06-04T16:09:34.646Z,24.49
2023-06-04T16:12:40.262Z,23.69
2023-06-04T16:15:45.820Z,23.99
2023-06-04T16:18:54.349Z,24.28
2023-06-04T16:22:00.316Z,25.06
2023-06-04T16:25:06.188Z,25.60
2023-06-04T16:28:12.408Z,26.21
2023-06-04T16:31:18.227Z,26.26
2023-06-04T16:34:25.332Z,26.28
2023-06-04T16:37:30.454Z,26.66
2023-06-04T16:40:35.826Z,26.82
2023-06-04T16:43:41.683Z,26.93
2023-06-04T16:46:47.021Z,27.07
2023-06-04T16:49:53.374Z,27.34
2023-06-04T16:52:59.622Z,27.18
2023-06-04T16:56:05.998Z,27.54
2023-06-04T16:59:12.972Z,27.99
2023-06-04T17:02:19.313Z,28.44
2023-06-04T17:05:26.872Z,28.75
2023-06-04T17:08:32.780Z,28.92
2023-06-04T17:11:39.819Z,29.24
2023-06-04T17:14:45.350Z,29.40
2023-06-04T17:17:51.484Z,29.71
2023-06-04T17:20:57.983Z,30.24
2023-06-04T17:24:07.702Z,30.33
2023-06-04T17:27:12.979Z,30.57
2023-06-04T17:30:18.636Z,30.97
2023-06-04T17:33:24.266Z,31.21
2023-06-04T17:36:29.499Z,31.42
2023-06-04T17:39:34.960Z,31.59
2023-06-04T17:42:41.485Z,31.83
2023-06-04T17:45:40.298Z,31.87
2023-06-04T17:48:32.723Z,32.15
2023-06-04T17:51:39.104Z,32.25
2023-06-04T17:54:44.632Z,32.51
2023-06-04T17:57:44.650Z,32.87
2023-06-04T18:00:49.767Z,32.95
2023-06-04T18:03:57.132Z,32.91
2023-06-04T18:07:02.735Z,33.40
2023-06-04T18:10:08.594Z,33.55
2023-06-04T18:13:13.836Z,33.61
2023-06-04T18:16:22.770Z,33.53
2023-06-04T18:19:28.741Z,33.61
2023-06-04T18:22:36.300Z,33.92
2023-06-04T18:25:43.005Z,34.32
2023-06-04T18:28:49.655Z,34.75
2023-06-04T18:31:56.101Z,34.78
2023-06-04T18:35:01.904Z,35.03
2023-06-04T18:38:07.863Z,34.97
2023-06-04T18:41:14.041Z,35.36
2023-06-04T18:44:19.771Z,35.92
2023-06-04T18:47:26.275Z,35.89
2023-06-04T18:50:31.358Z,35.46
2023-06-04T18:53:36.870Z,35.54
2023-06-04T18:56:41.913Z,36.40
2023-06-04T18:59:48.758Z,35.98
2023-06-04T19:02:55.369Z,36.24
2023-06-04T19:06:06.118Z,35.93
2023-06-04T19:09:12.598Z,35.84
2023-06-04T19:12:18.111Z,35.88
2023-06-04T19:15:25.442Z,36.00
2023-06-04T19:18:30.487Z,36.03
2023-06-04T19:21:35.733Z,36.37
2023-06-04T19:24:41.540Z,36.24
2023-06-04T19:27:50.130Z,36.18
2023-06-04T19:30:55.987Z,36.25
2023-06-04T19:34:01.806Z,36.24
2023-06-04T19:37:09.500Z,36.25
2023-06-04T19:40:15.870Z,36.21
2023-06-04T19:43:22.138Z,37.13
2023-06-04T19:46:27.312Z,36.19
2023-06-04T19:49:26.845Z,36.45
2023-06-04T19:52:34.154Z,36.56
2023-06-04T19:55:34.021Z,36.72
2023-06-04T19:58:40.012Z,36.80
2023-06-04T20:01:45.321Z,37.14
2023-06-04T20:04:50.283Z,37.63
2023-06-04T20:07:56.968Z,37.84
2023-06-04T20:11:02.603Z,37.99
2023-06-04T20:14:08.302Z,38.17
2023-06-04T20:17:13.734Z,38.38
2023-06-04T20:20:21.415Z,38.84
2023-06-04T20:23:27.373Z,38.82
2023-06-04T20:26:40.753Z,38.74
2023-06-04T20:29:45.740Z,38.66
2023-06-04T20:32:52.111Z,38.93
2023-06-04T20:35:58.318Z,39.01
2023-06-04T20:39:04.285Z,39.11
2023-06-04T20:42:10.362Z,39.75
2023-06-04T20:45:16.924Z,39.73
2023-06-04T20:48:23.564Z,39.92
2023-06-04T20:51:29.182Z,39.80
2023-06-04T20:54:35.517Z,39.76
2023-06-04T20:57:41.207Z,39.67
2023-06-04T21:00:46.611Z,39.67
2023-06-04T21:03:52.189Z,39.57
2023-06-04T21:06:57.976Z,39.93
2023-06-04T21:10:03.091Z,40.09
2023-06-04T21:13:08.539Z,40.27
2023-06-04T21:16:13.872Z,40.29
2023-06-04T21:19:18.948Z,40.70
2023-06-04T21:22:24.832Z,41.27
2023-06-04T21:25:30.748Z,41.49
2023-06-04T21:28:36.029Z,41.74
2023-06-04T21:31:41.897Z,41.53
2023-06-04T21:34:47.578Z,41.54
2023-06-04T21:37:53.408Z,41.53
2023-06-04T21:40:58.123Z,41.78
2023-06-04T21:44:03.958Z,41.93
2023-06-04T21:47:09.910Z,41.99
2023-06-04T21:50:16.210Z,41.86
2023-06-04T21:53:21.972Z,41.83
2023-06-04T21:56:27.646Z,41.77
2023-06-04T21:59:33.349Z,41.89
2023-06-04T22:02:39.347Z,41.90
2023-06-04T22:05:44.725Z,42.16
2023-06-04T22:08:51.188Z,42.47
2023-06-04T22:11:57.085Z,42.58
2023-06-04T22:15:03.234Z,42.65
2023-06-04T22:18:08.993Z,43.14
2023-06-04T22:21:14.791Z,43.39
2023-06-04T22:24:20.520Z,43.56
2023-06-04T22:27:26.215Z,43.67
2023-06-04T22:30:32.327Z,43.64
2023-06-04T22:33:39.380Z,43.75
2023-06-04T22:36:44.712Z,43.95
2023-06-04T22:39:51.239Z,44.03
2023-06-04T22:42:57.877Z,44.11
2023-06-04T22:46:05.919Z,44.06
2023-06-04T22:49:11.832Z,44.21
2023-06-04T22:52:18.715Z,44.10
2023-06-04T22:55:25.802Z,43.89
2023-06-04T22:58:31.050Z,44.38
2023-06-04T23:01:37.685Z,44.46
2023-06-04T23:04:44.695Z,44.06
2023-06-04T23:07:50.057Z,43.90
2023-06-04T23:10:55.835Z,44.07
2023-06-04T23:14:01.542Z,43.95
2023-06-04T23:17:08.281Z,44.59
2023-06-04T23:20:13.889Z,45.02
2023-06-04T23:23:19.544Z,45.40
2023-06-04T23:26:25.371Z,45.41
2023-06-04T23:29:30.853Z,45.10
2023-06-04T23:32:36.716Z,44.97
2023-06-04T23:35:43.180Z,44.50
2023-06-04T23:38:50.070Z,44.52
2023-06-04T23:41:57.621Z,44.48
2023-06-04T23:45:03.334Z,44.38
2023-06-04T23:48:09.913Z,44.40
2023-06-04T23:51:09.594Z,44.66
2023-06-04T23:54:14.841Z,44.99
2023-06-04T23:57:19.518Z,45.08
